Terminal Aerodrome Forecast
Issued by NWS

Home | Current Version | Previous Version | Text Only | Print | Product List | Glossary On
Versions: 1 2 3 4 5 6 7 8 9 10 11 12 13 14 15 16 17 18 19 20 21
000
FTUS43 KIND 270500
TAFBMG
TAF
KBMG 270527Z 2706/2806 VRB04KT P6SM SCT150
      TEMPO 2708/2712 3SM BR
     FM271700 03004KT P6SM SCT045
      AMD LTD TO CLD VIS AND WIND TIL 271300=

USA.gov is the U.S. government's official web portal to all federal, state and local government web resources and services.